createdAt,value
2022-10-20T00:02:52.317Z,1002.36
2022-10-20T00:07:52.263Z,1002.31
2022-10-20T00:12:52.144Z,1002.32
2022-10-20T00:17:52.157Z,1002.22
2022-10-20T00:22:52.089Z,1002.20
2022-10-20T00:27:52.051Z,1002.15
2022-10-20T00:32:51.942Z,1002.04
2022-10-20T00:37:51.943Z,1001.93
2022-10-20T00:42:51.863Z,1001.74
2022-10-20T00:47:51.734Z,1001.65
2022-10-20T00:52:51.671Z,1001.59
2022-10-20T00:57:51.621Z,1001.51
2022-10-20T01:02:51.561Z,1001.46
2022-10-20T01:07:51.537Z,1001.46
2022-10-20T01:12:51.455Z,1001.48
2022-10-20T01:17:51.495Z,1001.41
2022-10-20T01:22:51.435Z,1001.31
2022-10-20T01:27:51.352Z,1001.25
2022-10-20T01:32:51.223Z,1001.22
2022-10-20T01:37:51.578Z,1001.24
2022-10-20T01:42:51.115Z,1001.07
2022-10-20T01:47:51.085Z,1000.91
2022-10-20T01:52:51.036Z,1000.86
2022-10-20T01:57:51.085Z,1000.80
2022-10-20T02:02:51.003Z,1000.71
2022-10-20T02:07:50.873Z,1000.61
2022-10-20T02:12:50.876Z,1000.73
2022-10-20T02:17:50.799Z,1000.68
2022-10-20T02:22:50.691Z,1000.50
2022-10-20T02:27:50.625Z,1000.36
2022-10-20T02:32:50.567Z,1000.25
2022-10-20T02:37:50.520Z,1000.11
2022-10-20T02:42:50.448Z,1000.01
2022-10-20T02:47:50.507Z,1000.00
2022-10-20T02:52:50.427Z,1000.13
2022-10-20T02:57:50.368Z,1000.05
2022-10-20T03:02:50.297Z,1000.00
2022-10-20T03:07:50.213Z,999.93
2022-10-20T03:12:50.273Z,999.84
2022-10-20T03:17:50.064Z,999.92
2022-10-20T03:22:50.006Z,999.92
2022-10-20T03:27:50.030Z,999.84
2022-10-20T03:32:50.215Z,999.68
2022-10-20T03:37:50.174Z,999.62
2022-10-20T03:42:49.972Z,999.46
2022-10-20T03:47:49.979Z,999.43
2022-10-20T03:52:49.811Z,999.38
2022-10-20T03:57:49.785Z,999.41
2022-10-20T04:02:49.708Z,999.40
2022-10-20T04:07:49.620Z,999.28
2022-10-20T04:12:49.515Z,999.19
2022-10-20T04:17:49.562Z,999.18
2022-10-20T04:22:49.491Z,999.13
2022-10-20T04:27:49.417Z,999.17
2022-10-20T04:32:50.388Z,998.95
2022-10-20T04:37:49.294Z,998.83
2022-10-20T04:42:49.189Z,998.73
2022-10-20T04:47:49.171Z,998.76
2022-10-20T04:52:50.136Z,998.59
2022-10-20T04:57:48.983Z,998.53
2022-10-20T05:02:48.979Z,998.41
2022-10-20T05:07:48.965Z,998.28
2022-10-20T05:12:48.955Z,998.20
2022-10-20T05:17:50.283Z,998.02
2022-10-20T05:22:48.855Z,997.98
2022-10-20T05:27:48.782Z,997.92
2022-10-20T05:32:48.760Z,998.04
2022-10-20T05:37:48.590Z,997.94
2022-10-20T05:42:48.650Z,997.89
2022-10-20T05:47:48.504Z,997.74
2022-10-20T05:52:48.440Z,997.73
2022-10-20T05:57:48.356Z,997.78
2022-10-20T06:02:48.480Z,997.74
2022-10-20T06:07:48.369Z,997.69
2022-10-20T06:12:48.257Z,997.78
2022-10-20T06:17:48.275Z,997.81
2022-10-20T06:22:48.228Z,997.79
2022-10-20T06:27:48.264Z,997.79
2022-10-20T06:32:49.154Z,997.82
2022-10-20T06:37:49.166Z,997.93
2022-10-20T06:42:48.914Z,997.79
2022-10-20T06:47:48.141Z,997.86
2022-10-20T06:52:47.871Z,997.89
2022-10-20T06:57:47.856Z,997.86
2022-10-20T07:02:47.814Z,997.99
2022-10-20T07:07:47.880Z,997.98
2022-10-20T07:12:48.747Z,998.02
2022-10-20T07:17:48.806Z,997.81
2022-10-20T07:22:47.695Z,997.74
2022-10-20T07:27:47.455Z,997.79
2022-10-20T07:32:47.351Z,997.75
2022-10-20T07:37:47.324Z,997.87
2022-10-20T07:42:47.285Z,997.96
2022-10-20T07:47:47.753Z,997.78
2022-10-20T07:52:47.168Z,997.72
2022-10-20T09:32:59.605Z,997.36
2022-10-20T09:37:59.287Z,997.23
2022-10-20T09:42:59.227Z,997.04
2022-10-20T09:47:59.186Z,997.10
2022-10-20T09:52:59.147Z,997.04
2022-10-20T09:57:59.054Z,997.03
2022-10-20T10:02:59.008Z,996.87
2022-10-20T10:07:58.988Z,996.91
2022-10-20T10:12:58.947Z,996.75
2022-10-20T10:17:58.848Z,997.02
2022-10-20T10:22:58.803Z,997.04
2022-10-20T10:27:58.770Z,997.16
2022-10-20T10:32:58.687Z,997.23
2022-10-20T10:37:58.654Z,997.29
2022-10-20T10:42:58.653Z,997.29
2022-10-20T10:47:58.551Z,997.20
2022-10-20T10:52:59.478Z,997.10
2022-10-20T10:57:58.510Z,996.89
2022-10-20T11:02:58.383Z,997.00
2022-10-20T11:07:59.340Z,996.84
2022-10-20T11:12:58.267Z,996.82
2022-10-20T11:17:58.241Z,996.78
2022-10-20T11:22:58.137Z,996.62
2022-10-20T11:27:58.081Z,996.60
2022-10-20T11:32:58.072Z,996.62
2022-10-20T11:37:57.968Z,996.56
2022-10-20T11:42:57.901Z,996.68
2022-10-20T11:47:57.879Z,996.69
2022-10-20T11:52:57.815Z,996.73
2022-10-20T11:58:00.380Z,996.84
2022-10-20T12:02:57.804Z,996.84
2022-10-20T12:08:17.496Z,996.77
2022-10-20T12:12:58.742Z,996.83
2022-10-20T12:17:57.720Z,996.83
2022-10-20T12:22:57.535Z,996.80
2022-10-20T12:27:57.485Z,996.76
2022-10-20T12:32:57.385Z,996.81
2022-10-20T12:37:57.390Z,996.72
2022-10-20T12:42:57.358Z,996.64
2022-10-20T12:47:58.274Z,996.28
2022-10-20T12:52:57.313Z,996.38
2022-10-20T12:57:57.130Z,996.40
2022-10-20T13:02:57.071Z,996.29
2022-10-20T13:07:57.166Z,996.32
2022-10-20T13:12:57.030Z,996.35
2022-10-20T13:17:57.062Z,996.34
2022-10-20T13:22:57.172Z,996.41
2022-10-20T13:27:56.996Z,996.31
2022-10-20T13:33:11.214Z,996.38
2022-10-20T13:37:57.722Z,996.42
2022-10-20T13:42:56.681Z,996.32
2022-10-20T13:47:56.668Z,996.23
2022-10-20T13:52:56.749Z,996.15
2022-10-20T13:57:56.623Z,996.12
2022-10-20T14:02:56.612Z,996.09
2022-10-20T14:07:57.548Z,995.92
2022-10-20T14:12:57.426Z,995.95
2022-10-20T14:17:56.260Z,996.00
2022-10-20T14:22:56.503Z,995.89
2022-10-20T14:27:56.549Z,995.91
2022-10-20T14:32:56.249Z,995.85
2022-10-20T14:38:05.337Z,995.78
2022-10-20T14:42:56.039Z,995.63
2022-10-20T14:47:55.937Z,995.67
2022-10-20T14:52:55.931Z,995.75
2022-10-20T14:57:55.872Z,995.81
2022-10-20T15:02:58.762Z,995.71
2022-10-20T15:08:07.003Z,995.73
2022-10-20T15:12:56.990Z,995.55
2022-10-20T15:17:55.801Z,995.73
2022-10-20T15:22:56.493Z,995.81
2022-10-20T15:27:56.509Z,995.79
2022-10-20T15:32:55.721Z,995.75
2022-10-20T16:03:00.707Z,995.41
2022-10-20T16:08:00.707Z,995.33
2022-10-20T16:13:00.627Z,995.43
2022-10-20T16:18:01.822Z,995.44
2022-10-20T16:23:00.483Z,995.41
2022-10-20T16:28:00.480Z,995.39
2022-10-20T16:33:00.448Z,995.36
2022-10-20T16:38:00.346Z,995.33
2022-10-20T16:43:00.295Z,995.28
2022-10-20T16:48:00.216Z,995.28
2022-10-20T16:53:00.325Z,995.30
2022-10-20T16:58:00.126Z,995.28
2022-10-20T17:03:00.178Z,995.28
2022-10-20T17:08:00.104Z,995.26
2022-10-20T17:12:59.949Z,995.25
2022-10-20T17:17:59.868Z,995.33
2022-10-20T17:22:59.910Z,995.29
2022-10-20T17:28:00.776Z,995.35
2022-10-20T17:32:59.822Z,995.32
2022-10-20T17:38:03.698Z,995.26
2022-10-20T17:43:00.732Z,995.37
2022-10-20T17:47:59.660Z,995.41
2022-10-20T17:52:59.793Z,995.46
2022-10-20T17:58:02.461Z,995.45
2022-10-20T18:03:00.374Z,995.44
2022-10-20T18:07:59.397Z,995.53
2022-10-20T18:12:59.370Z,995.49
2022-10-20T18:17:59.217Z,995.44
2022-10-20T18:22:59.214Z,995.38
2022-10-20T18:27:59.087Z,995.36
2022-10-20T18:33:00.108Z,995.32
2022-10-20T18:37:59.009Z,995.26
2022-10-20T18:42:59.035Z,995.20
2022-10-20T18:47:58.874Z,995.21
2022-10-20T18:52:58.906Z,995.04
2022-10-20T18:57:58.849Z,994.94
2022-10-20T19:03:00.882Z,995.01
2022-10-20T19:07:58.649Z,994.91
2022-10-20T19:12:58.599Z,994.88
2022-10-20T19:18:01.554Z,994.82
2022-10-20T19:22:58.504Z,994.84
2022-10-20T19:27:58.463Z,994.80
2022-10-20T19:32:58.500Z,994.71
2022-10-20T19:37:58.394Z,994.69
2022-10-20T19:42:58.355Z,994.55
2022-10-20T19:47:58.264Z,994.49
2022-10-20T19:52:58.928Z,994.36
2022-10-20T19:57:58.181Z,994.40
2022-10-20T20:02:58.050Z,994.41
2022-10-20T20:07:58.011Z,994.41
2022-10-20T20:12:58.036Z,994.32
2022-10-20T20:17:57.974Z,994.14
2022-10-20T20:22:57.821Z,994.04
2022-10-20T20:27:57.843Z,994.03
2022-10-20T20:32:57.749Z,993.97
2022-10-20T20:37:57.699Z,993.95
2022-10-20T20:42:57.612Z,994.00
2022-10-20T20:47:57.509Z,994.14
2022-10-20T20:52:57.497Z,994.25
2022-10-20T20:57:57.552Z,994.15
2022-10-20T21:02:57.463Z,994.11
2022-10-20T21:07:57.451Z,993.93
2022-10-20T21:12:57.362Z,993.86
2022-10-20T21:17:57.242Z,993.86
2022-10-20T21:22:57.222Z,993.80
2022-10-20T21:27:57.117Z,993.86
2022-10-20T21:32:57.066Z,993.83
2022-10-20T22:56:21.586Z,994.15
2022-10-20T23:01:21.607Z,994.14
2022-10-20T23:06:21.466Z,994.11
2022-10-20T23:11:21.358Z,994.09
2022-10-20T23:16:21.310Z,994.07
2022-10-20T23:21:21.375Z,994.06
2022-10-20T23:26:21.204Z,994.02
2022-10-20T23:31:21.240Z,993.99
2022-10-20T23:36:21.097Z,993.94
2022-10-20T23:41:21.021Z,993.83
2022-10-20T23:46:21.080Z,993.88
2022-10-20T23:51:20.954Z,993.81
2022-10-20T23:56:20.949Z,993.70
